X  Sluiten METAR luchtvaart weer gegevens      EHAM Amsterdam Airport Schiphol
Temperatuur
3°C Temperatuur
0°C Dauwpunt
81% Vochtigheid



Wind
8 KM/U
5 MPH
2 M/S
4 KTS



230°
ZW
Huidig weer

Geheel bewolkt Geheel bewolkt
Luchtdruk 1032.92 (hPa) - 30.5 (inHg)
Zicht 6.2 (mijl) - 10 (km)
Vliegveld
Vliegveld code EHAM

Locatie : Amsterdam Airport Schiphol
Afstand: 20 (km)

Metar:
EHAM 252155Z 23004KT 9999 OVC015 03/M00 Q1033 NOSIG

Tijd: 25-01-2022 22:55 CET